sensor_id;sensor_type;location;lat;lon;timestamp;P1;P2;P0
82819;PMS5003;72573;46.838;-71.218;2023-09-07T00:01:29;46.58;38.74;23.68
82819;PMS5003;72573;46.838;-71.218;2023-09-07T00:03:30;50;42;24.29
82819;PMS5003;72573;46.838;-71.218;2023-09-07T00:05:31;45.65;38.25;22.65
82819;PMS5003;72573;46.838;-71.218;2023-09-07T00:07:30;47.24;39.81;23.71
82819;PMS5003;72573;46.838;-71.218;2023-09-07T00:09:30;45.15;37.4;23
82819;PMS5003;72573;46.838;-71.218;2023-09-07T00:11:30;44.11;38;23.74
82819;PMS5003;72573;46.838;-71.218;2023-09-07T00:13:33;43.85;37.85;23.1
82819;PMS5003;72573;46.838;-71.218;2023-09-07T00:15:35;49.67;41.62;25.52
82819;PMS5003;72573;46.838;-71.218;2023-09-07T00:17:32;43.9;36.95;24.57
82819;PMS5003;72573;46.838;-71.218;2023-09-07T00:19:53;47.7;40.7;24.95
82819;PMS5003;72573;46.838;-71.218;2023-09-07T00:21:51;45.67;38.86;23.1
82819;PMS5003;72573;46.838;-71.218;2023-09-07T00:23:52;49.25;41.25;23.7
82819;PMS5003;72573;46.838;-71.218;2023-09-07T00:25:54;40.8;34.85;22.6
82819;PMS5003;72573;46.838;-71.218;2023-09-07T00:27:55;40.67;33.76;22.19
82819;PMS5003;72573;46.838;-71.218;2023-09-07T00:29:54;44.65;37.9;21.8
82819;PMS5003;72573;46.838;-71.218;2023-09-07T00:31:55;40.8;34.15;21.95
82819;PMS5003;72573;46.838;-71.218;2023-09-07T00:33:56;45.79;39.21;22.42
82819;PMS5003;72573;46.838;-71.218;2023-09-07T00:35:56;43.52;37.29;22.24
82819;PMS5003;72573;46.838;-71.218;2023-09-07T00:37:57;45.32;37.63;22.74
82819;PMS5003;72573;46.838;-71.218;2023-09-07T00:39:57;46.43;38.95;23.24
82819;PMS5003;72573;46.838;-71.218;2023-09-07T00:41:58;44.15;37.45;23
82819;PMS5003;72573;46.838;-71.218;2023-09-07T00:43:58;46.7;38.95;22.65
82819;PMS5003;72573;46.838;-71.218;2023-09-07T00:46:00;46.9;38.81;23.38
82819;PMS5003;72573;46.838;-71.218;2023-09-07T00:47:58;46.33;39.33;23.14
82819;PMS5003;72573;46.838;-71.218;2023-09-07T00:49:59;39.7;35;21.9
82819;PMS5003;72573;46.838;-71.218;2023-09-07T00:52:02;46.57;39.71;23
82819;PMS5003;72573;46.838;-71.218;2023-09-07T00:54:01;45.67;38.24;22.1
82819;PMS5003;72573;46.838;-71.218;2023-09-07T00:56:03;46.84;39.37;23.16
82819;PMS5003;72573;46.838;-71.218;2023-09-07T00:58:04;45.71;39.1;22.95
82819;PMS5003;72573;46.838;-71.218;2023-09-07T01:00:06;46.3;38.85;22.55
82819;PMS5003;72573;46.838;-71.218;2023-09-07T01:02:03;42.8;37.35;22.7
82819;PMS5003;72573;46.838;-71.218;2023-09-07T01:04:05;43.45;37.2;22.35
82819;PMS5003;72573;46.838;-71.218;2023-09-07T01:06:07;46.3;38.5;22.85
82819;PMS5003;72573;46.838;-71.218;2023-09-07T01:08:09;47.43;39.67;22.81
82819;PMS5003;72573;46.838;-71.218;2023-09-07T01:10:06;44.75;38.35;22.75
82819;PMS5003;72573;46.838;-71.218;2023-09-07T01:12:07;49.32;41.37;23.53
82819;PMS5003;72573;46.838;-71.218;2023-09-07T01:14:09;46.95;38.85;23.4
82819;PMS5003;72573;46.838;-71.218;2023-09-07T01:16:09;46.5;39.1;23.5
82819;PMS5003;72573;46.838;-71.218;2023-09-07T01:18:10;45.15;37.85;22.25
82819;PMS5003;72573;46.838;-71.218;2023-09-07T01:20:08;46.29;39.24;24.29
82819;PMS5003;72573;46.838;-71.218;2023-09-07T01:22:08;44.55;37.5;23.55
82819;PMS5003;72573;46.838;-71.218;2023-09-07T01:24:11;49.45;41.8;24.8
82819;PMS5003;72573;46.838;-71.218;2023-09-07T01:26:13;47;39.95;23.95
82819;PMS5003;72573;46.838;-71.218;2023-09-07T01:28:12;47.48;38.33;24.38
82819;PMS5003;72573;46.838;-71.218;2023-09-07T01:30:13;46.05;39.6;23.85
82819;PMS5003;72573;46.838;-71.218;2023-09-07T01:32:13;48.1;39.95;22.95
82819;PMS5003;72573;46.838;-71.218;2023-09-07T01:34:15;50;41.74;24.47
82819;PMS5003;72573;46.838;-71.218;2023-09-07T01:36:13;47.19;39.86;23.57
82819;PMS5003;72573;46.838;-71.218;2023-09-07T01:38:16;44.75;38.6;25.25
82819;PMS5003;72573;46.838;-71.218;2023-09-07T01:40:15;48.05;40.15;23.8
82819;PMS5003;72573;46.838;-71.218;2023-09-07T01:42:15;47.52;39.57;24.38
82819;PMS5003;72573;46.838;-71.218;2023-09-07T01:44:19;48;40.67;24.05
82819;PMS5003;72573;46.838;-71.218;2023-09-07T01:46:19;49.76;41.86;25.48
82819;PMS5003;72573;46.838;-71.218;2023-09-07T01:48:17;43.35;37.25;23
82819;PMS5003;72573;46.838;-71.218;2023-09-07T01:50:17;47.4;39.95;23.6
82819;PMS5003;72573;46.838;-71.218;2023-09-07T01:52:18;44.8;38.05;23.85
82819;PMS5003;72573;46.838;-71.218;2023-09-07T01:54:18;48.68;40.47;25.26
82819;PMS5003;72573;46.838;-71.218;2023-09-07T01:56:20;47.95;40.38;25
82819;PMS5003;72573;46.838;-71.218;2023-09-07T01:58:19;48.05;40;23.37
82819;PMS5003;72573;46.838;-71.218;2023-09-07T02:00:20;49.05;41.16;23.58
82819;PMS5003;72573;46.838;-71.218;2023-09-07T02:02:21;45.65;38.35;24.25
82819;PMS5003;72573;46.838;-71.218;2023-09-07T02:04:22;48.68;40.89;23.74
82819;PMS5003;72573;46.838;-71.218;2023-09-07T02:06:21;47.95;40.11;23.58
82819;PMS5003;72573;46.838;-71.218;2023-09-07T02:08:22;44.95;36.81;22.67
82819;PMS5003;72573;46.838;-71.218;2023-09-07T02:10:21;47.45;39.9;24.25
82819;PMS5003;72573;46.838;-71.218;2023-09-07T02:12:23;49.38;41.29;24.33
82819;PMS5003;72573;46.838;-71.218;2023-09-07T02:14:24;44.6;38.15;22.35
82819;PMS5003;72573;46.838;-71.218;2023-09-07T02:16:25;46.85;39.2;23.45
82819;PMS5003;72573;46.838;-71.218;2023-09-07T02:18:26;45.52;39.14;22.48
82819;PMS5003;72573;46.838;-71.218;2023-09-07T02:20:26;47.85;40.45;23.75
82819;PMS5003;72573;46.838;-71.218;2023-09-07T02:22:24;44.74;38.05;22.89
82819;PMS5003;72573;46.838;-71.218;2023-09-07T02:24:26;45.95;39;23.7
82819;PMS5003;72573;46.838;-71.218;2023-09-07T02:26:25;50.25;42.15;23.65
82819;PMS5003;72573;46.838;-71.218;2023-09-07T02:28:27;48.52;40.48;23.33
82819;PMS5003;72573;46.838;-71.218;2023-09-07T02:30:27;43.25;36.95;22.65
82819;PMS5003;72573;46.838;-71.218;2023-09-07T02:32:27;44.25;37.1;23.1
82819;PMS5003;72573;46.838;-71.218;2023-09-07T02:34:29;47.05;39.71;23.71
82819;PMS5003;72573;46.838;-71.218;2023-09-07T02:36:27;44.3;38;23
82819;PMS5003;72573;46.838;-71.218;2023-09-07T02:38:29;47.8;40.5;23.9
82819;PMS5003;72573;46.838;-71.218;2023-09-07T02:40:29;46.1;37.95;23.29
82819;PMS5003;72573;46.838;-71.218;2023-09-07T02:42:30;46;38.35;22.95
82819;PMS5003;72573;46.838;-71.218;2023-09-07T02:44:29;46.9;38.6;22.3
82819;PMS5003;72573;46.838;-71.218;2023-09-07T02:46:32;48.2;40.3;22.8
82819;PMS5003;72573;46.838;-71.218;2023-09-07T02:48:31;43.05;36.8;23.8
82819;PMS5003;72573;46.838;-71.218;2023-09-07T02:50:31;46.65;39.35;23.2
82819;PMS5003;72573;46.838;-71.218;2023-09-07T02:52:31;46.33;39;23.1
82819;PMS5003;72573;46.838;-71.218;2023-09-07T02:54:32;47.47;39.58;22.74
82819;PMS5003;72573;46.838;-71.218;2023-09-07T02:56:31;44.68;37.63;23
82819;PMS5003;72573;46.838;-71.218;2023-09-07T02:58:32;43.84;37.21;22.58
82819;PMS5003;72573;46.838;-71.218;2023-09-07T03:00:33;48.52;39.9;22.86
82819;PMS5003;72573;46.838;-71.218;2023-09-07T03:02:33;48.25;41.3;24.25
82819;PMS5003;72573;46.838;-71.218;2023-09-07T03:04:35;49.95;41.55;23.95
82819;PMS5003;72573;46.838;-71.218;2023-09-07T03:06:36;46.85;39.4;23.35
82819;PMS5003;72573;46.838;-71.218;2023-09-07T03:08:36;46.63;39.53;23.05
82819;PMS5003;72573;46.838;-71.218;2023-09-07T03:10:37;49.85;41.35;23.2
82819;PMS5003;72573;46.838;-71.218;2023-09-07T03:12:34;49.26;40.84;24.37
82819;PMS5003;72573;46.838;-71.218;2023-09-07T03:14:37;47.1;39.9;23.52
82819;PMS5003;72573;46.838;-71.218;2023-09-07T03:16:36;51.1;42.62;25.19
82819;PMS5003;72573;46.838;-71.218;2023-09-07T03:18:36;47.74;39.47;23.53
82819;PMS5003;72573;46.838;-71.218;2023-09-07T03:20:39;50.26;42.58;25.21
82819;PMS5003;72573;46.838;-71.218;2023-09-07T03:22:37;48.42;41.11;23.95
82819;PMS5003;72573;46.838;-71.218;2023-09-07T03:24:40;47;39.75;23.3
82819;PMS5003;72573;46.838;-71.218;2023-09-07T03:26:38;46.65;39.6;23.05
82819;PMS5003;72573;46.838;-71.218;2023-09-07T03:28:38;50.68;42.21;24.74
82819;PMS5003;72573;46.838;-71.218;2023-09-07T03:30:41;47.75;40.2;24.05
82819;PMS5003;72573;46.838;-71.218;2023-09-07T03:32:41;47.95;40.95;25.52
82819;PMS5003;72573;46.838;-71.218;2023-09-07T03:34:42;49.25;41.05;24.95
82819;PMS5003;72573;46.838;-71.218;2023-09-07T03:36:43;46.86;38.9;23.62
82819;PMS5003;72573;46.838;-71.218;2023-09-07T03:38:41;50.7;42.65;25.1
82819;PMS5003;72573;46.838;-71.218;2023-09-07T03:40:42;48.76;40.52;24.38
82819;PMS5003;72573;46.838;-71.218;2023-09-07T03:42:44;44.35;37.6;22.65
82819;PMS5003;72573;46.838;-71.218;2023-09-07T03:44:44;50.95;42.53;24.11
82819;PMS5003;72573;46.838;-71.218;2023-09-07T03:46:42;48;40.58;23.42
82819;PMS5003;72573;46.838;-71.218;2023-09-07T03:48:44;49.4;41.4;24.9
82819;PMS5003;72573;46.838;-71.218;2023-09-07T03:50:45;47.65;39;23.05
82819;PMS5003;72573;46.838;-71.218;2023-09-07T03:52:46;46.2;39.3;24.05
82819;PMS5003;72573;46.838;-71.218;2023-09-07T03:54:45;47.45;39.8;23.45
82819;PMS5003;72573;46.838;-71.218;2023-09-07T03:56:44;44.25;37.55;22.25
82819;PMS5003;72573;46.838;-71.218;2023-09-07T03:58:46;48.6;40.95;22.6
82819;PMS5003;72573;46.838;-71.218;2023-09-07T04:00:47;47.89;40.32;23.42
82819;PMS5003;72573;46.838;-71.218;2023-09-07T04:02:46;49.05;41.16;23.53
82819;PMS5003;72573;46.838;-71.218;2023-09-07T04:04:48;51.76;43.05;25.86
82819;PMS5003;72573;46.838;-71.218;2023-09-07T04:06:49;47.9;39;22.55
82819;PMS5003;72573;46.838;-71.218;2023-09-07T04:08:50;45.15;38.65;23.55
82819;PMS5003;72573;46.838;-71.218;2023-09-07T04:10:49;48.5;39.45;23.4
82819;PMS5003;72573;46.838;-71.218;2023-09-07T04:12:47;50.1;41.85;23.4
82819;PMS5003;72573;46.838;-71.218;2023-09-07T04:14:51;47.37;38.79;22.95
82819;PMS5003;72573;46.838;-71.218;2023-09-07T04:16:50;51.05;42.6;25.3
82819;PMS5003;72573;46.838;-71.218;2023-09-07T04:18:51;44.65;38.45;23.1
82819;PMS5003;72573;46.838;-71.218;2023-09-07T04:20:51;45.8;38.5;23.25
82819;PMS5003;72573;46.838;-71.218;2023-09-07T04:22:51;45.3;37.9;23.55
82819;PMS5003;72573;46.838;-71.218;2023-09-07T04:24:52;48.14;39.67;23.43
82819;PMS5003;72573;46.838;-71.218;2023-09-07T04:26:51;45.75;38.9;23.65
82819;PMS5003;72573;46.838;-71.218;2023-09-07T04:28:54;49.6;41.2;23.8
82819;PMS5003;72573;46.838;-71.218;2023-09-07T04:30:54;49.7;41;23.2
82819;PMS5003;72573;46.838;-71.218;2023-09-07T04:32:53;47.1;39.7;23.5
82819;PMS5003;72573;46.838;-71.218;2023-09-07T04:34:56;42.9;37.1;24.55
82819;PMS5003;72573;46.838;-71.218;2023-09-07T04:36:56;47.15;39.45;24.2
82819;PMS5003;72573;46.838;-71.218;2023-09-07T04:38:54;50.85;43.25;26.2
82819;PMS5003;72573;46.838;-71.218;2023-09-07T04:40:54;47.71;40.29;24.24
82819;PMS5003;72573;46.838;-71.218;2023-09-07T04:42:55;48.58;40.05;24.21
82819;PMS5003;72573;46.838;-71.218;2023-09-07T04:44:54;49.53;41.68;24.63
82819;PMS5003;72573;46.838;-71.218;2023-09-07T04:46:55;49.45;41.2;24.1
82819;PMS5003;72573;46.838;-71.218;2023-09-07T04:48:56;47.68;39.68;23.68
82819;PMS5003;72573;46.838;-71.218;2023-09-07T04:50:58;47.1;39.45;23.5
82819;PMS5003;72573;46.838;-71.218;2023-09-07T04:52:57;50.9;42.19;24.14
82819;PMS5003;72573;46.838;-71.218;2023-09-07T04:55:07;47.8;39.1;22.65
82819;PMS5003;72573;46.838;-71.218;2023-09-07T04:57:08;45.05;36.86;22.38
82819;PMS5003;72573;46.838;-71.218;2023-09-07T04:59:07;49.65;41.45;25.5
82819;PMS5003;72573;46.838;-71.218;2023-09-07T05:01:11;46.29;39.1;23.1
82819;PMS5003;72573;46.838;-71.218;2023-09-07T05:03:09;48.84;41.16;24.58
82819;PMS5003;72573;46.838;-71.218;2023-09-07T05:05:08;52.75;43;25.55
82819;PMS5003;72573;46.838;-71.218;2023-09-07T05:07:08;47.24;40.33;22.95
82819;PMS5003;72573;46.838;-71.218;2023-09-07T05:09:10;49.19;41.05;25.1
82819;PMS5003;72573;46.838;-71.218;2023-09-07T05:11:09;45.19;38.33;23.29
82819;PMS5003;72573;46.838;-71.218;2023-09-07T05:13:11;48.2;40.75;23.75
82819;PMS5003;72573;46.838;-71.218;2023-09-07T05:15:11;47.85;40.05;24.7
82819;PMS5003;72573;46.838;-71.218;2023-09-07T05:17:13;46.42;39;23.21
82819;PMS5003;72573;46.838;-71.218;2023-09-07T05:19:13;45.9;39.4;24.05
82819;PMS5003;72573;46.838;-71.218;2023-09-07T05:21:12;50.58;41.32;23.95
82819;PMS5003;72573;46.838;-71.218;2023-09-07T05:23:14;48.4;40.4;23.1
82819;PMS5003;72573;46.838;-71.218;2023-09-07T05:25:13;48.6;40;23.7
82819;PMS5003;72573;46.838;-71.218;2023-09-07T05:27:14;50.33;42.38;24.57
82819;PMS5003;72573;46.838;-71.218;2023-09-07T05:29:15;49.9;41.71;25.14
82819;PMS5003;72573;46.838;-71.218;2023-09-07T05:31:14;50.16;41.58;25.21
82819;PMS5003;72573;46.838;-71.218;2023-09-07T05:33:15;48.05;38.7;23.35
82819;PMS5003;72573;46.838;-71.218;2023-09-07T05:35:15;47.47;40.11;23.79
82819;PMS5003;72573;46.838;-71.218;2023-09-07T05:37:16;46.8;40.1;23.7
82819;PMS5003;72573;46.838;-71.218;2023-09-07T05:39:17;49.25;40.8;24.3
82819;PMS5003;72573;46.838;-71.218;2023-09-07T05:41:15;50.63;42.95;25.11
82819;PMS5003;72573;46.838;-71.218;2023-09-07T05:43:16;49.43;40.57;23.81
82819;PMS5003;72573;46.838;-71.218;2023-09-07T05:45:17;49.38;40.9;25.57
82819;PMS5003;72573;46.838;-71.218;2023-09-07T05:47:17;50.55;42.55;23.55
82819;PMS5003;72573;46.838;-71.218;2023-09-07T05:49:18;49.35;41.05;25
82819;PMS5003;72573;46.838;-71.218;2023-09-07T05:51:19;47.2;39.2;24.45
82819;PMS5003;72573;46.838;-71.218;2023-09-07T05:53:19;54.11;44.68;26.74
82819;PMS5003;72573;46.838;-71.218;2023-09-07T05:55:19;50.4;41.9;24.85
82819;PMS5003;72573;46.838;-71.218;2023-09-07T05:57:20;53.2;44.1;25
82819;PMS5003;72573;46.838;-71.218;2023-09-07T05:59:21;50.67;42.52;24.95
82819;PMS5003;72573;46.838;-71.218;2023-09-07T06:01:22;50.25;42.55;25.85
82819;PMS5003;72573;46.838;-71.218;2023-09-07T06:03:22;50.55;42.85;25.35
82819;PMS5003;72573;46.838;-71.218;2023-09-07T06:05:22;51.6;41.9;24.15
82819;PMS5003;72573;46.838;-71.218;2023-09-07T06:07:23;48.85;40.5;23.85
82819;PMS5003;72573;46.838;-71.218;2023-09-07T06:09:22;50.45;41.5;24.05
82819;PMS5003;72573;46.838;-71.218;2023-09-07T06:11:23;53.65;44.75;25.75
82819;PMS5003;72573;46.838;-71.218;2023-09-07T06:13:22;48;40.5;23.45
82819;PMS5003;72573;46.838;-71.218;2023-09-07T06:15:25;50;39.9;24.43
82819;PMS5003;72573;46.838;-71.218;2023-09-07T06:17:25;52.1;43.3;25.9
82819;PMS5003;72573;46.838;-71.218;2023-09-07T06:19:26;50.1;41.05;24
82819;PMS5003;72573;46.838;-71.218;2023-09-07T06:21:26;51.48;43.52;26.1
82819;PMS5003;72573;46.838;-71.218;2023-09-07T06:23:26;52.63;43.79;25.11
82819;PMS5003;72573;46.838;-71.218;2023-09-07T06:25:26;52;43.55;24.85
82819;PMS5003;72573;46.838;-71.218;2023-09-07T06:27:28;52.37;43.16;24.89
82819;PMS5003;72573;46.838;-71.218;2023-09-07T06:29:26;51.55;42.85;24.9
82819;PMS5003;72573;46.838;-71.218;2023-09-07T06:31:30;50.81;41.9;23.95
82819;PMS5003;72573;46.838;-71.218;2023-09-07T06:33:29;49.79;40.84;23.84
82819;PMS5003;72573;46.838;-71.218;2023-09-07T06:35:29;51.7;42.95;25.8
82819;PMS5003;72573;46.838;-71.218;2023-09-07T06:37:31;50.6;42.65;25.35
82819;PMS5003;72573;46.838;-71.218;2023-09-07T06:39:30;53.33;43.89;24.67
82819;PMS5003;72573;46.838;-71.218;2023-09-07T06:41:30;51.65;42.8;24.85
82819;PMS5003;72573;46.838;-71.218;2023-09-07T06:43:32;45.6;38.95;24
82819;PMS5003;72573;46.838;-71.218;2023-09-07T06:45:33;52.4;43.1;25.35
82819;PMS5003;72573;46.838;-71.218;2023-09-07T06:47:32;51.25;42.65;24.95
82819;PMS5003;72573;46.838;-71.218;2023-09-07T06:49:33;50.8;41.8;24
82819;PMS5003;72573;46.838;-71.218;2023-09-07T06:51:32;51.75;43.15;25.2
82819;PMS5003;72573;46.838;-71.218;2023-09-07T06:53:35;51.85;42.95;24.9
82819;PMS5003;72573;46.838;-71.218;2023-09-07T06:55:32;47.47;40.58;25.58
82819;PMS5003;72573;46.838;-71.218;2023-09-07T06:57:33;52.15;43.9;25.95
82819;PMS5003;72573;46.838;-71.218;2023-09-07T06:59:34;54.45;44.35;25.75
82819;PMS5003;72573;46.838;-71.218;2023-09-07T07:01:35;48.16;40.79;24.21
82819;PMS5003;72573;46.838;-71.218;2023-09-07T07:03:34;53.29;44.24;25.52
82819;PMS5003;72573;46.838;-71.218;2023-09-07T07:05:37;49.71;40.76;24.38
82819;PMS5003;72573;46.838;-71.218;2023-09-07T07:07:38;54.24;42.95;25.1
82819;PMS5003;72573;46.838;-71.218;2023-09-07T07:09:37;49.15;41.35;24.25
82819;PMS5003;72573;46.838;-71.218;2023-09-07T07:11:38;50.55;42.6;25.3
82819;PMS5003;72573;46.838;-71.218;2023-09-07T07:13:38;51.9;41.75;24.9
82819;PMS5003;72573;46.838;-71.218;2023-09-07T07:15:38;51.29;42.67;24.67
82819;PMS5003;72573;46.838;-71.218;2023-09-07T07:17:38;52.19;43.05;24.43
82819;PMS5003;72573;46.838;-71.218;2023-09-07T07:19:38;48.57;40.19;25.67
82819;PMS5003;72573;46.838;-71.218;2023-09-07T07:21:39;51.95;42.8;25.55
82819;PMS5003;72573;46.838;-71.218;2023-09-07T07:23:40;49.32;41.37;23.95
82819;PMS5003;72573;46.838;-71.218;2023-09-07T07:25:40;51.74;42.47;24.74
82819;PMS5003;72573;46.838;-71.218;2023-09-07T07:27:40;50.75;42.55;25.2
82819;PMS5003;72573;46.838;-71.218;2023-09-07T07:29:41;54.1;44.3;25.8
82819;PMS5003;72573;46.838;-71.218;2023-09-07T07:31:40;54.63;45.05;26.53
82819;PMS5003;72573;46.838;-71.218;2023-09-07T07:33:42;54.3;44.7;26.25
82819;PMS5003;72573;46.838;-71.218;2023-09-07T07:35:42;49.76;41;25.24
82819;PMS5003;72573;46.838;-71.218;2023-09-07T07:37:42;57.1;45.1;25.8
82819;PMS5003;72573;46.838;-71.218;2023-09-07T07:39:44;54.95;45.16;26.11
82819;PMS5003;72573;46.838;-71.218;2023-09-07T07:41:44;54;43.95;26.05
82819;PMS5003;72573;46.838;-71.218;2023-09-07T07:43:44;52.45;42.8;25.65
82819;PMS5003;72573;46.838;-71.218;2023-09-07T07:45:44;49.55;40.4;25.55
82819;PMS5003;72573;46.838;-71.218;2023-09-07T07:47:46;51.85;43;26.7
82819;PMS5003;72573;46.838;-71.218;2023-09-07T07:49:44;52.75;43.7;26.15
82819;PMS5003;72573;46.838;-71.218;2023-09-07T07:51:45;53.45;44.1;25.45
82819;PMS5003;72573;46.838;-71.218;2023-09-07T07:53:45;52.2;43.7;25.2
82819;PMS5003;72573;46.838;-71.218;2023-09-07T07:55:46;52.37;43.05;25.53
82819;PMS5003;72573;46.838;-71.218;2023-09-07T07:57:48;54.6;44.85;26.2
82819;PMS5003;72573;46.838;-71.218;2023-09-07T07:59:47;54.58;44.47;25.37
82819;PMS5003;72573;46.838;-71.218;2023-09-07T08:01:48;53.2;43.15;26
82819;PMS5003;72573;46.838;-71.218;2023-09-07T08:03:49;53.15;43.55;23.85
82819;PMS5003;72573;46.838;-71.218;2023-09-07T08:05:50;49.45;40.95;24.3
82819;PMS5003;72573;46.838;-71.218;2023-09-07T08:07:51;54.9;44.05;25.67
82819;PMS5003;72573;46.838;-71.218;2023-09-07T08:09:49;52.86;40.9;25.14
82819;PMS5003;72573;46.838;-71.218;2023-09-07T08:11:50;50.55;42.65;24.4
82819;PMS5003;72573;46.838;-71.218;2023-09-07T08:13:50;52.33;43.1;24.81
82819;PMS5003;72573;46.838;-71.218;2023-09-07T08:15:51;53.4;44;27.2
82819;PMS5003;72573;46.838;-71.218;2023-09-07T08:17:51;54.58;45.42;25.84
82819;PMS5003;72573;46.838;-71.218;2023-09-07T08:19:51;51.84;43.47;24.42
82819;PMS5003;72573;46.838;-71.218;2023-09-07T08:21:51;49.5;41.2;24
82819;PMS5003;72573;46.838;-71.218;2023-09-07T08:23:53;51.65;43.2;25
82819;PMS5003;72573;46.838;-71.218;2023-09-07T08:25:54;54.05;44.42;25.53
82819;PMS5003;72573;46.838;-71.218;2023-09-07T08:27:54;53.68;44.42;25.16
82819;PMS5003;72573;46.838;-71.218;2023-09-07T08:29:54;53.15;43.45;26.4
82819;PMS5003;72573;46.838;-71.218;2023-09-07T08:31:55;49.25;41.15;24.7
82819;PMS5003;72573;46.838;-71.218;2023-09-07T08:33:56;48.45;40.6;25.25
82819;PMS5003;72573;46.838;-71.218;2023-09-07T08:35:55;52.55;43;25.65
82819;PMS5003;72573;46.838;-71.218;2023-09-07T08:37:56;51.6;42.9;26.05
82819;PMS5003;72573;46.838;-71.218;2023-09-07T08:39:58;52.48;42.43;24.14
82819;PMS5003;72573;46.838;-71.218;2023-09-07T08:41:58;52.05;41.67;24.19
82819;PMS5003;72573;46.838;-71.218;2023-09-07T08:43:57;47.52;39.67;24.9
82819;PMS5003;72573;46.838;-71.218;2023-09-07T08:46:01;50.35;42.15;25
82819;PMS5003;72573;46.838;-71.218;2023-09-07T08:47:58;53.68;44.26;24.84
82819;PMS5003;72573;46.838;-71.218;2023-09-07T08:49:57;53.65;44.6;25.45
82819;PMS5003;72573;46.838;-71.218;2023-09-07T08:51:59;52;43.7;25.4
82819;PMS5003;72573;46.838;-71.218;2023-09-07T08:54:00;52.6;43;25
82819;PMS5003;72573;46.838;-71.218;2023-09-07T08:56:00;51.15;43;25.65
82819;PMS5003;72573;46.838;-71.218;2023-09-07T08:58:01;50.37;41.37;24.58
82819;PMS5003;72573;46.838;-71.218;2023-09-07T09:00:00;53.35;43.25;24.75
82819;PMS5003;72573;46.838;-71.218;2023-09-07T09:11:24;54.2;44.75;25.05
82819;PMS5003;72573;46.838;-71.218;2023-09-07T09:11:36;53.2;44.45;25.75
82819;PMS5003;72573;46.838;-71.218;2023-09-07T09:11:48;51.29;41.81;24.81
82819;PMS5003;72573;46.838;-71.218;2023-09-07T09:11:55;48.62;41.05;25.1
82819;PMS5003;72573;46.838;-71.218;2023-09-07T09:12:13;53.65;44.6;25.75
82819;PMS5003;72573;46.838;-71.218;2023-09-07T09:13:44;55.57;45.33;26.48
82819;PMS5003;72573;46.838;-71.218;2023-09-07T09:15:45;48.68;40.84;25.42
82819;PMS5003;72573;46.838;-71.218;2023-09-07T09:17:44;51.45;42.65;24.6
82819;PMS5003;72573;46.838;-71.218;2023-09-07T09:19:44;53.37;43.84;25.63
82819;PMS5003;72573;46.838;-71.218;2023-09-07T09:21:44;51.86;42.19;24.71
82819;PMS5003;72573;46.838;-71.218;2023-09-07T09:23:47;53.95;44.95;25.15
82819;PMS5003;72573;46.838;-71.218;2023-09-07T09:25:43;51.95;43.05;25
82819;PMS5003;72573;46.838;-71.218;2023-09-07T09:27:47;54.1;43.85;25.7
82819;PMS5003;72573;46.838;-71.218;2023-09-07T09:29:49;53.74;44.32;25.42
82819;PMS5003;72573;46.838;-71.218;2023-09-07T09:31:47;49.16;40.58;25.63
82819;PMS5003;72573;46.838;-71.218;2023-09-07T09:33:47;51.85;43.3;25.4
82819;PMS5003;72573;46.838;-71.218;2023-09-07T09:35:49;55.63;46.21;26.26
82819;PMS5003;72573;46.838;-71.218;2023-09-07T09:37:47;50.7;43;25.25
82819;PMS5003;72573;46.838;-71.218;2023-09-07T09:39:49;51.45;42.45;25.2
82819;PMS5003;72573;46.838;-71.218;2023-09-07T09:41:49;51.85;42.3;26.1
82819;PMS5003;72573;46.838;-71.218;2023-09-07T09:43:51;54.3;45;26.25
82819;PMS5003;72573;46.838;-71.218;2023-09-07T09:45:48;52;43.05;25.68
82819;PMS5003;72573;46.838;-71.218;2023-09-07T09:47:48;51.74;42.68;25.21
82819;PMS5003;72573;46.838;-71.218;2023-09-07T09:49:49;54.05;44.16;25.74
82819;PMS5003;72573;46.838;-71.218;2023-09-07T09:51:49;52.2;43.5;25.45
82819;PMS5003;72573;46.838;-71.218;2023-09-07T09:53:50;53.45;44.15;25.6
82819;PMS5003;72573;46.838;-71.218;2023-09-07T09:55:52;52.35;43.45;25.6
82819;PMS5003;72573;46.838;-71.218;2023-09-07T09:57:51;47.62;39.62;23.1
82819;PMS5003;72573;46.838;-71.218;2023-09-07T09:59:52;56.19;44.76;26.38
82819;PMS5003;72573;46.838;-71.218;2023-09-07T10:01:53;53.1;44.4;26.1
82819;PMS5003;72573;46.838;-71.218;2023-09-07T10:03:54;52.35;43.95;25.4
82819;PMS5003;72573;46.838;-71.218;2023-09-07T10:05:54;50.53;42.79;24.05
82819;PMS5003;72573;46.838;-71.218;2023-09-07T10:07:59;53.3;44.35;25.7
82819;PMS5003;72573;46.838;-71.218;2023-09-07T10:09:56;54.95;44.55;26.45
82819;PMS5003;72573;46.838;-71.218;2023-09-07T10:11:57;51;41.95;24.2
82819;PMS5003;72573;46.838;-71.218;2023-09-07T10:13:56;55.26;44.79;25.79
82819;PMS5003;72573;46.838;-71.218;2023-09-07T10:16:00;51.65;41.15;23.5
82819;PMS5003;72573;46.838;-71.218;2023-09-07T10:18:06;55.43;45.86;26.38
82819;PMS5003;72573;46.838;-71.218;2023-09-07T10:20:03;53.62;43.57;24.52
82819;PMS5003;72573;46.838;-71.218;2023-09-07T10:21:58;55.65;45.7;26.25
82819;PMS5003;72573;46.838;-71.218;2023-09-07T10:23:57;57.15;45.65;26.65
82819;PMS5003;72573;46.838;-71.218;2023-09-07T10:25:58;53.7;44.05;26.1
82819;PMS5003;72573;46.838;-71.218;2023-09-07T10:27:57;53.15;43.7;25.25
82819;PMS5003;72573;46.838;-71.218;2023-09-07T10:29:58;55.45;45.5;26.1
82819;PMS5003;72573;46.838;-71.218;2023-09-07T10:32:04;52.29;43.52;24.9
82819;PMS5003;72573;46.838;-71.218;2023-09-07T10:34:07;52.05;43.37;25.42
82819;PMS5003;72573;46.838;-71.218;2023-09-07T10:36:01;48.05;40.1;25.55
82819;PMS5003;72573;46.838;-71.218;2023-09-07T10:37:59;53.55;44.45;25
82819;PMS5003;72573;46.838;-71.218;2023-09-07T10:40:01;54.9;44.85;25.6
82819;PMS5003;72573;46.838;-71.218;2023-09-07T10:42:02;53.45;43.2;25.2
82819;PMS5003;72573;46.838;-71.218;2023-09-07T10:44:02;54.95;43.9;26.15
82819;PMS5003;72573;46.838;-71.218;2023-09-07T10:46:02;51.5;43.1;25.2
82819;PMS5003;72573;46.838;-71.218;2023-09-07T10:48:03;54.14;44.33;26.05
82819;PMS5003;72573;46.838;-71.218;2023-09-07T10:50:04;54.5;44.35;25.95
82819;PMS5003;72573;46.838;-71.218;2023-09-07T10:52:05;52.48;43.19;25.67
82819;PMS5003;72573;46.838;-71.218;2023-09-07T10:54:13;55.29;43.95;25.81
82819;PMS5003;72573;46.838;-71.218;2023-09-07T10:56:07;53.6;43;25.7
82819;PMS5003;72573;46.838;-71.218;2023-09-07T10:58:07;52.53;43.68;25.26
82819;PMS5003;72573;46.838;-71.218;2023-09-07T11:00:08;56.65;45.85;25.15
82819;PMS5003;72573;46.838;-71.218;2023-09-07T11:02:06;49.43;40.19;24.48
82819;PMS5003;72573;46.838;-71.218;2023-09-07T11:04:09;50.36;42.77;25.91
82819;PMS5003;72573;46.838;-71.218;2023-09-07T11:06:08;53.89;43.21;25.32
82819;PMS5003;72573;46.838;-71.218;2023-09-07T11:08:08;54.58;44.84;25.79
82819;PMS5003;72573;46.838;-71.218;2023-09-07T11:10:10;55.63;45.42;26